Chickering American River Reserve, California Weather observations

Data are for 10 minute period ending at time listed.
 Day   Time   Solar   Ave.   Ave.  Ave.  Vector  Max.   Baro.   Total    
  of    of     Rad.   Air    Rel.  Wind   Wind   Wind  Press.  Precip.   
Year   Day            Temp.  Hum.  Speed  Dir.   Gust                    
2015   (PST)  Kw/m2    F      %     mph   deg.    mph    mb.     in.     
-------------------------------------------------------------------------
  86   21:10   0.00   44.9    80    0.9   220     2.6   823.4    0.00 
  86   21:20   0.00   44.7    80    0.8   220     1.7   823.3    0.00 
  86   21:30   0.00   44.6    81    0.8   230     5.0   823.3    0.00 
  86   21:40   0.00   44.6    81    1.0   244     3.1   823.4    0.00 
  86   21:50   0.00   44.7    81    1.1   244     2.3   823.5    0.00 
  86   22:00   0.00   44.3    81    0.8   230     2.4   823.5    0.00 
  86   22:10   0.00   43.7    82    1.0   226     2.0   823.5    0.00 
  86   22:20   0.00   42.9    83    1.2   224     2.1   823.5    0.00 
  86   22:30   0.00   42.8    82    1.0   221     2.1   823.4    0.00 
  86   22:40   0.00   42.3    83    1.5   226     2.9   823.4    0.00 
  86   22:50   0.00   41.8    84    1.5   227     2.8   823.4    0.00 
  86   23:00   0.00   41.5    84    1.0   229     2.6   823.3    0.00 
  86   23:10   0.00   41.6    83    0.7   240     2.1   823.2    0.00 
  86   23:20   0.00   41.5    82    1.0   208     3.1   823.2    0.00 
  86   23:30   0.00   40.9    82    1.3   219     2.4   823.0    0.00 
  86   23:40   0.00   41.2    82    0.9   235     2.8   823.0    0.00 
  86   23:50   0.00   41.9    80    1.1   229     4.0   822.9    0.00 
  87    0:00   0.00   42.1    78    0.9   225     2.6   823.0    0.00 
  87    0:10   0.00   42.7    77    1.0   216     9.9   823.0    0.00 
  87    0:20   0.00   42.1    79    0.3   237     1.4   823.1    0.00 
  87    0:30   0.00   41.5    80    0.8   214     2.3   823.0    0.00 
  87    0:40   0.00   41.7    78    1.6   235     3.4   823.0    0.00 
  87    0:50   0.00   42.5    73    1.3   217     4.5   822.9    0.00 
  87    1:00   0.00   42.3    73    0.6   242     2.0   822.9    0.00 
  87    1:10   0.00   41.8    72    1.3   265     2.6   823.0    0.00 
  87    1:20   0.00   41.7    73    1.5   226     4.1   823.1    0.00 
  87    1:30   0.00   40.9    75    0.9   212     2.3   823.1    0.00 
  87    1:40   0.00   40.0    77    1.3   217     2.4   823.0    0.00 
  87    1:50   0.00   39.1    79    1.5   215     2.6   823.0    0.00 
  87    2:00   0.00   39.0    79    1.0   214     2.0   822.9    0.00 
  87    2:10   0.00   38.5    79    1.6   212     3.3   822.9    0.00 
  87    2:20   0.00   38.1    80    1.4   215     3.1   822.9    0.00 
  87    2:30   0.00   37.9    80    1.4   219     3.4   822.8    0.00 
  87    2:40   0.00   37.6    80    1.4   231     2.6   822.8    0.00 
  87    2:50   0.00   37.3    81    1.4   214     2.3   822.9    0.00 
  87    3:00   0.00   36.6    83    1.4   191     2.0   822.9    0.00 
  87    3:10   0.00   35.8    84    1.3   191     2.4   822.9    0.00 
  87    3:20   0.00   35.8    85    1.3   204     2.3   822.9    0.00 
  87    3:30   0.00   35.6    85    2.1   207     3.0   822.9    0.00 
  87    3:40   0.00   35.5    83    2.1   211     4.0   822.8    0.00 
  87    3:50   0.00   36.1    82    1.5   225     2.3   822.9    0.00 
  87    4:00   0.00   35.6    83    1.2   234     2.0   822.9    0.00 
  87    4:10   0.00   35.2    83    1.0   210     1.8   823.0    0.00 
  87    4:20   0.00   34.5    85    1.3   192     2.2   823.0    0.00 
  87    4:30   0.00   34.0    87    1.6   198     2.2   823.0    0.00 
  87    4:40   0.00   33.7    88    1.7   196     2.7   823.2    0.00 
  87    4:50   0.00   33.6    88    1.5   205     2.2   823.3    0.00 
  87    5:00   0.00   33.7    88    1.6   196     2.2   823.4    0.00 
  87    5:10   0.00   33.4    89    1.6   192     2.0   823.4    0.00 
  87    5:20   0.00   33.3    90    0.9   186     1.6   823.4    0.00 
  87    5:30   0.00   33.6    90    1.4   214     2.9   823.5    0.00 
  87    5:40   0.00   34.0    87    1.4   212     2.5   823.5    0.00 
  87    5:50   0.00   33.9    87    1.6   204     2.5   823.6    0.00 
  87    6:00   0.00   33.9    88    1.9   222     2.7   823.6    0.00 
  87    6:10   0.01   34.2    88    2.2   201     3.1   823.6    0.00 
  87    6:20   0.02   34.2    88    2.0   187     3.4   823.8    0.00 
  87    6:30   0.03   34.1    89    1.9   198     2.9   823.8    0.00 
  87    6:40   0.07   34.8    87    0.7   178     2.3   823.7    0.00 
  87    6:50   0.15   36.7    80    0.2    59     1.5   823.8    0.00 
  87    7:00   0.07   38.4    77    0.5   226     2.0   823.7    0.00 
  87    7:10   0.16   40.1    71    0.5   102     3.1   823.8    0.00 
  87    7:20   0.15   41.7    73    0.0   185     0.9   823.7    0.00 
  87    7:30   0.23   43.1    67    0.4   194     1.4   823.7    0.00 
  87    7:40   0.33   45.7    66    0.1   135     0.9   823.7    0.00 
  87    7:50   0.36   48.2    62    0.7   110     2.8   823.9    0.00 
  87    8:00   0.37   51.5    52    0.8   136     2.3   824.0    0.00 
  87    8:10   0.40   52.6    52    1.2   167     2.4   824.0    0.00 
  87    8:20   0.32   54.1    51    0.6   160     1.6   824.0    0.00 
  87    8:30   0.27   55.6    43    1.1    53     3.4   824.0    0.00 
  87    8:40   0.12   56.2    39    0.6    87     2.2   824.0    0.00 
  87    8:50   0.44   56.4    37    0.2    87     1.8   824.0    0.00 
  87    9:00   0.57   56.4    40    1.1    21     4.2   824.2    0.00 
  87    9:10   0.60   56.6    41    1.5    22     3.7   824.4    0.00 
  87    9:20   0.61   57.8    34    1.8    43     3.9   824.5    0.00 
  87    9:30   0.67   58.4    29    1.6   111     2.8   824.5    0.00 
  87    9:40   0.70   59.9    28    0.7   134     2.6   824.4    0.00 
  87    9:50   0.70   60.3    30    1.7    49     4.3   824.2    0.00 
  87   10:00   0.77   60.7    31    2.0    14     5.0   824.1    0.00 
  87   10:10   0.74   61.2    27    1.3   140     4.3   824.1    0.00 
  87   10:20   0.82   61.3    25    1.2   249     4.5   824.0    0.00 
  87   10:30   0.83   62.4    27    1.7   345     5.8   823.8    0.00 
  87   10:40   0.83   62.6    29    2.0    59     6.1   823.7    0.00 
  87   10:50   0.81   62.7    25    3.3    41     7.7   823.7    0.00 
  87   11:00   0.87   62.3    22    3.6    60     9.2   823.7    0.00 
  87   11:10   0.87   62.9    20    2.3    23     9.6   823.6    0.00 
  87   11:20   0.89   64.2    21    2.1    86     7.6   823.5    0.00 
  87   11:30   0.90   64.5    19    1.5    80     4.4   823.5    0.00 
  87   11:40   0.91   64.8    19    1.7    65     6.3   823.4    0.00 
  87   11:50   0.92   64.4    20    1.7    99     7.6   823.3    0.00 
  87   12:00   0.92   65.8    21    2.0   130     5.6   823.4    0.00 
  87   12:10   0.87   64.8    20    1.5   167     5.7   823.3    0.00 
  87   12:20   0.92   65.6    21    1.9   150     6.6   823.2    0.00 
  87   12:30   0.88   65.4    19    1.7   202     5.8   823.1    0.00 
  87   12:40   0.89   65.9    20    1.9   212     6.1   823.0    0.00 
  87   12:50   0.90   66.3    21    1.7   152     5.0   822.9    0.00 
  87   13:00   0.89   66.6    20    2.4   146     6.3   822.9    0.00 
  87   13:10   0.88   66.2    19    1.4   104     6.1   822.8    0.00 
  87   13:20   0.87   67.1    19    1.4   159     6.0   822.7    0.00 
  87   13:30   0.83   66.7    18    1.4    54     4.2   822.6    0.00 
  87   13:40   0.78   66.5    20    2.4    54     6.9   822.6    0.00 
  87   13:50   0.80   66.3    20    2.7    40     7.1   822.5    0.00 
  87   14:00   0.80   66.0    19    4.1    54     9.9   822.5    0.00 
  87   14:10   0.75   66.0    21    2.4    26     5.7   822.4    0.00 
  87   14:20   0.75   66.5    20    1.8    61     5.0   822.4    0.00 
  87   14:30   0.74   66.8    18    2.3    30    10.1   822.3    0.00 
  87   14:40   0.68   66.5    17    2.1    77     8.0   822.3    0.00 
  87   14:50   0.69   66.7    19    2.4    41     7.7   822.3    0.00 
  87   15:00   0.66   66.3    18    2.0    29     5.9   822.1    0.00 
  87   15:10   0.55   66.9    19    1.7    94     8.2   822.0    0.00 
  87   15:20   0.56   66.2    17    2.2   156     6.2   821.9    0.00 
  87   15:30   0.53   65.6    18    1.4   192     4.2   821.8    0.00 
  87   15:40   0.33   65.1    19    1.1   102     5.3   821.7    0.00 
  87   15:50   0.11   64.5    19    1.0   117     5.3   821.6    0.00 
  87   16:00   0.34   65.4    18    1.2   118     5.6   821.6    0.00 
  87   16:10   0.16   64.1    20    0.8   204     2.6   821.6    0.00 
  87   16:20   0.12   61.7    25    0.4   202     2.6   821.5    0.00 
  87   16:30   0.07   60.5    28    0.9   273     3.0   821.5    0.00 
  87   16:40   0.05   59.9    32    1.1   179     3.7   821.6    0.00 
  87   16:50   0.03   59.6    39    0.6   187     4.9   821.7    0.00 
  87   17:00   0.04   58.3    45    0.2   244     2.1   821.8    0.00 
  87   17:10   0.04   57.4    48    0.3   289     3.7   821.9    0.00 
  87   17:20   0.04   56.2    52    0.3   187     1.5   822.1    0.00 
  87   17:30   0.04   55.6    55    0.3   172     1.5   822.3    0.00 
  87   17:40   0.03   55.0    58    0.4   214     1.7   822.4    0.00 
  87   17:50   0.02   54.2    61    0.5   191     2.2   822.5    0.00 
  87   18:00   0.01   53.2    62    0.4   215     1.4   822.6    0.00 
  87   18:10   0.01   52.5    64    0.5   242     1.8   822.6    0.00 
  87   18:20   0.00   51.9    64    0.6   228     1.9   822.6    0.00 
  87   18:30   0.00   51.2    65    1.1   221     2.0   822.7    0.00 
  87   18:40   0.00   50.3    69    1.9   215     2.6   822.7    0.00 
  87   18:50   0.00   48.7    73    1.4   184     2.4   822.8    0.00 
  87   19:00   0.00   47.7    74    1.8   208     2.6   822.9    0.00 
  87   19:10   0.00   46.6    77    1.8   193     3.1   823.0    0.00 
  87   19:20   0.00   45.7    78    1.9   214     3.6   823.1    0.00 
  87   19:30   0.00   45.2    78    1.9   205     2.9   823.1    0.00 
  87   19:40   0.00   44.5    80    1.9   204     2.9   823.1    0.00 
  87   19:50   0.00   43.9    78    2.1   199     4.2   823.2    0.00 
  87   20:00   0.00   44.0    72    1.6   208     3.6   823.2    0.00 
  87   20:10   0.00   44.0    70    1.8   198     3.2   823.2    0.00 
  87   20:20   0.00   43.5    63    1.9   214     3.9   823.2    0.00 
  87   20:30   0.00   44.5    54    0.9   200     2.1   823.2    0.00 
  87   20:40   0.00   44.9    54    1.2   178     5.8   823.2    0.00 
  87   20:50   0.00   43.8    57    1.9   206     4.1   823.2    0.00 
  87   21:00   0.00   43.5    53    1.8   212     3.1   823.2    0.00 

Return to Chickering American River Reserve graphs page.


Western Regional Climate Center,wrcc@dri.edu